Aérodrome :
LOGIN :

S'inscrire | Disclaimer

   EN    FR    IT 

 










Légende :    VFR   VFR Marginal   IFR   IFR Intensif   IFR Très Intensif
Visi : 
Plafond : 
>= 8 km
>= 3000ft
5 à 8 km
1000 à 3000 ft
1500m à 5 km
500 à 1000 ft
800 à 1500m
200 à 500 ft
< 800m
< 200 ft
Symboles :   Orages  Brouillard  Fortes neiges  Fortes précipitations  Vent > 20 kt
SIGMETs :   Divers  Orages  Givrage  Turbulence  Onde Orograph.  Cendres Volcan.







- Altitude de l'aérodrome : 142 ft
- Code IATA : ALC


LEAL - Alicante

DERNIER METAR :
  • 280630Z 26011KT 220V300 CAVOK 27/11 Q1010 NOSIG

METARs EXPIRÉS :
  • 280600Z 29013KT 260V320 CAVOK 26/11 Q1009 NOSIG
  • 280530Z 27009KT CAVOK 25/11 Q1009 NOSIG
  • 280500Z 26008KT 230V300 CAVOK 26/10 Q1009 NOSIG
  • 280430Z 27010KT CAVOK 25/11 Q1009 NOSIG
  • 280400Z 27013KT CAVOK 26/11 Q1008 NOSIG

TAF TAF LEAL
Valide du 28 à 06h jusqu'au 29 à 06h UTC


280500Z 2806/2906 30012KT 9999 FEW030 TX36/2812Z TN23/2806Z
TEMPO 2806/2808 VRB04KT
TEMPO 2813/2818 28015G28KT
BECMG 2820/2822 31005KT
Pas de NOTAMs connus pour ce terrain.
2 SIGMETs publiés pour la FIR Barcelona (LECB) :
 
Orages noyés dans la masse
LECB SIGMET 3 VALID 280651/280800 LEVA
LECB BARCELONA FIR/UIR EMBD TS OBS AT 0651Z WI N4030 E00040 - N4020 E00150 - N4110 E00330 - N4140 E00230 TOP FL380 MOV NE NC=
Orages noyés dans la masse
LECB SIGMET 2 VALID 280540/280800 LEVA
LECB BARCELONA FIR/UIR EMBD TS OBS AT 0540Z N OF LINE N4130 E00230 - N4120 E00420 TOP FL380 MOV NE NC=



MET'MAP, la Météo Aéronautique d'un coup d'oeil ! - Copyright ORBIFLY Décembre 2007 - Disclaimer

ORBIFLY MET'MAP TEAM :

Programmation & Développement : Alexandra Zaïnal
Conception & Développement : Baudouin d'Aumeries
Co-Programmation & Développement : Marc-Olivier Méhu
Soutien technique & logistique : Manuel Goepfert

Contact : metmap@orbifly.com




SOURCES & CREDITS :

   NOAA